RYR3H LEAL-LEPA
Flight info
| Callsign | RYR3H |
|---|---|
| Flight time | 0h 39m |
| Altitude | 24000 |
| Route | MITOS N851 RUXET |
| Aircraft | A320/M-SDE3FGHIRWY/LB1 |
Departure
| Time | 2026-05-07 14:02 |
|---|---|
| Airport | Alicante-Elche Miguel Hernández Airport (LEAL) |
Arrival
| Time | 2026-05-07 14:42 |
|---|---|
| Airport | Palma de Mallorca Airport (LEPA) |
| Time | Latitude | Longitude | Altitude | Speed | Heading |
|---|---|---|---|---|---|
| 2026-05-07 13:40 | 38.28551 | -0.55451 | 118 ft | 0 kts | 11° |
| 2026-05-07 13:52 | 38.28541 | -0.55453 | 92 ft | 4 kts | 8° |
| 2026-05-07 13:53 | 38.28514 | -0.55456 | 91 ft | 4 kts | 357° |
| 2026-05-07 13:53 | 38.28489 | -0.55451 | 92 ft | 4 kts | 333° |
| 2026-05-07 13:53 | 38.28472 | -0.55432 | 92 ft | 2 kts | 281° |
| 2026-05-07 13:53 | 38.28472 | -0.55430 | 92 ft | 2 kts | 280° |
| 2026-05-07 13:57 | 38.28473 | -0.55434 | 93 ft | 4 kts | 280° |
| 2026-05-07 13:57 | 38.28491 | -0.55562 | 95 ft | 25 kts | 281° |
| 2026-05-07 13:57 | 38.28531 | -0.55824 | 100 ft | 30 kts | 281° |
| 2026-05-07 13:58 | 38.28581 | -0.56085 | 100 ft | 32 kts | 281° |
| 2026-05-07 13:58 | 38.28621 | -0.56359 | 109 ft | 30 kts | 281° |
| 2026-05-07 13:58 | 38.28646 | -0.56534 | 116 ft | 11 kts | 274° |
| 2026-05-07 13:58 | 38.28594 | -0.56599 | 118 ft | 18 kts | 194° |
| 2026-05-07 13:59 | 38.28511 | -0.56676 | 120 ft | 11 kts | 282° |
| 2026-05-07 13:59 | 38.28525 | -0.56757 | 124 ft | 7 kts | 283° |
| 2026-05-07 13:59 | 38.28533 | -0.56810 | 126 ft | 6 kts | 281° |
| 2026-05-07 13:59 | 38.28541 | -0.56865 | 130 ft | 6 kts | 279° |
| 2026-05-07 14:00 | 38.28554 | -0.56962 | 135 ft | 18 kts | 279° |
| 2026-05-07 14:00 | 38.28584 | -0.57168 | 144 ft | 27 kts | 281° |
| 2026-05-07 14:00 | 38.28609 | -0.57351 | 151 ft | 14 kts | 278° |
| 2026-05-07 14:00 | 38.28567 | -0.57421 | 154 ft | 9 kts | 199° |
| 2026-05-07 14:01 | 38.28518 | -0.57437 | 155 ft | 6 kts | 192° |
| 2026-05-07 14:01 | 38.28481 | -0.57444 | 155 ft | 8 kts | 186° |
| 2026-05-07 14:01 | 38.28438 | -0.57394 | 153 ft | 0 kts | 97° |
| 2026-05-07 14:02 | 38.28398 | -0.57095 | 140 ft | 76 kts | 100° |
| 2026-05-07 14:02 | 38.28265 | -0.56149 | 112 ft | 141 kts | 100° |
| 2026-05-07 14:02 | 38.28059 | -0.54741 | 325 ft | 173 kts | 100° |
| 2026-05-07 14:02 | 38.27809 | -0.53217 | 1090 ft | 175 kts | 99° |
| 2026-05-07 14:03 | 38.27567 | -0.51752 | 2053 ft | 164 kts | 97° |
| 2026-05-07 14:03 | 38.27372 | -0.50243 | 2582 ft | 184 kts | 91° |
| 2026-05-07 14:03 | 38.27475 | -0.48527 | 3100 ft | 207 kts | 75° |
| 2026-05-07 14:03 | 38.28051 | -0.46742 | 3616 ft | 231 kts | 58° |
| 2026-05-07 14:04 | 38.28976 | -0.44950 | 4264 ft | 250 kts | 57° |
| 2026-05-07 14:04 | 38.29941 | -0.43094 | 5210 ft | 259 kts | 58° |
| 2026-05-07 14:04 | 38.30938 | -0.41180 | 6300 ft | 262 kts | 58° |
| 2026-05-07 14:04 | 38.31961 | -0.39211 | 7258 ft | 270 kts | 58° |
| 2026-05-07 14:05 | 38.33009 | -0.37191 | 8217 ft | 276 kts | 58° |
| 2026-05-07 14:05 | 38.33928 | -0.35028 | 9178 ft | 280 kts | 70° |
| 2026-05-07 14:05 | 38.34642 | -0.32700 | 10090 ft | 285 kts | 70° |
| 2026-05-07 14:05 | 38.35391 | -0.30252 | 10529 ft | 309 kts | 70° |
| 2026-05-07 14:06 | 38.36206 | -0.27605 | 10893 ft | 333 kts | 70° |
| 2026-05-07 14:06 | 38.37104 | -0.24820 | 11462 ft | 345 kts | 69° |
| 2026-05-07 14:06 | 38.38042 | -0.22017 | 12180 ft | 352 kts | 69° |
| 2026-05-07 14:06 | 38.39020 | -0.19129 | 12927 ft | 358 kts | 68° |
| 2026-05-07 14:07 | 38.40014 | -0.16194 | 13686 ft | 363 kts | 68° |
| 2026-05-07 14:07 | 38.41016 | -0.13208 | 14340 ft | 369 kts | 69° |
| 2026-05-07 14:07 | 38.42027 | -0.10175 | 15012 ft | 374 kts | 69° |
| 2026-05-07 14:07 | 38.43045 | -0.07104 | 15666 ft | 379 kts | 69° |
| 2026-05-07 14:08 | 38.44076 | -0.03988 | 16330 ft | 384 kts | 68° |
| 2026-05-07 14:08 | 38.45117 | -0.00835 | 16994 ft | 388 kts | 69° |
| 2026-05-07 14:08 | 38.46150 | 0.02326 | 17582 ft | 395 kts | 69° |
| 2026-05-07 14:08 | 38.47203 | 0.05588 | 18185 ft | 401 kts | 70° |
| 2026-05-07 14:09 | 38.48267 | 0.08905 | 18740 ft | 406 kts | 70° |
| 2026-05-07 14:09 | 38.49342 | 0.12262 | 19307 ft | 411 kts | 70° |
| 2026-05-07 14:09 | 38.50427 | 0.15652 | 19872 ft | 415 kts | 70° |
| 2026-05-07 14:09 | 38.51523 | 0.19083 | 20436 ft | 420 kts | 70° |
| 2026-05-07 14:10 | 38.52634 | 0.22549 | 21019 ft | 424 kts | 70° |
| 2026-05-07 14:10 | 38.53752 | 0.26051 | 21576 ft | 428 kts | 70° |
| 2026-05-07 14:10 | 38.54882 | 0.29597 | 22118 ft | 433 kts | 70° |
| 2026-05-07 14:10 | 38.56007 | 0.33129 | 22624 ft | 437 kts | 70° |
| 2026-05-07 14:11 | 38.57160 | 0.36745 | 23142 ft | 442 kts | 70° |
| 2026-05-07 14:11 | 38.58324 | 0.40397 | 23595 ft | 445 kts | 71° |
| 2026-05-07 14:11 | 38.59493 | 0.44080 | 23859 ft | 447 kts | 71° |
| 2026-05-07 14:11 | 38.60664 | 0.47773 | 23925 ft | 451 kts | 71° |
| 2026-05-07 14:12 | 38.61845 | 0.51508 | 23934 ft | 453 kts | 71° |
| 2026-05-07 14:12 | 38.63025 | 0.55248 | 23932 ft | 453 kts | 71° |
| 2026-05-07 14:12 | 38.64202 | 0.58980 | 23936 ft | 453 kts | 71° |
| 2026-05-07 14:12 | 38.65384 | 0.62730 | 23940 ft | 453 kts | 71° |
| 2026-05-07 14:13 | 38.66485 | 0.66428 | 23930 ft | 448 kts | 76° |
| 2026-05-07 14:13 | 38.67199 | 0.70276 | 23935 ft | 443 kts | 85° |
| 2026-05-07 14:13 | 38.67639 | 0.74167 | 23935 ft | 442 kts | 86° |
| 2026-05-07 14:13 | 38.68070 | 0.78064 | 23909 ft | 442 kts | 86° |
| 2026-05-07 14:14 | 38.68498 | 0.81950 | 23913 ft | 441 kts | 86° |
| 2026-05-07 14:14 | 38.68927 | 0.85844 | 23919 ft | 441 kts | 86° |
| 2026-05-07 14:14 | 38.69352 | 0.89735 | 23919 ft | 441 kts | 86° |
| 2026-05-07 14:14 | 38.69775 | 0.93619 | 23921 ft | 441 kts | 86° |
| 2026-05-07 14:15 | 38.70193 | 0.97455 | 23919 ft | 441 kts | 86° |
| 2026-05-07 14:15 | 38.70621 | 1.01343 | 23918 ft | 441 kts | 86° |
| 2026-05-07 14:15 | 38.71047 | 1.05223 | 23916 ft | 441 kts | 86° |
| 2026-05-07 14:15 | 38.71472 | 1.09111 | 23915 ft | 441 kts | 86° |
| 2026-05-07 14:16 | 38.71895 | 1.12998 | 23914 ft | 441 kts | 86° |
| 2026-05-07 14:16 | 38.72313 | 1.16878 | 23908 ft | 440 kts | 85° |
| 2026-05-07 14:16 | 38.72729 | 1.20752 | 23931 ft | 439 kts | 85° |
| 2026-05-07 14:16 | 38.73143 | 1.24625 | 23932 ft | 438 kts | 85° |
| 2026-05-07 14:17 | 38.73553 | 1.28485 | 23935 ft | 437 kts | 85° |
| 2026-05-07 14:17 | 38.73963 | 1.32349 | 23932 ft | 437 kts | 85° |
| 2026-05-07 14:17 | 38.74367 | 1.36140 | 23930 ft | 436 kts | 85° |
| 2026-05-07 14:17 | 38.74779 | 1.39992 | 23927 ft | 436 kts | 85° |
| 2026-05-07 14:18 | 38.75187 | 1.43835 | 23923 ft | 435 kts | 85° |
| 2026-05-07 14:18 | 38.75590 | 1.47677 | 23920 ft | 435 kts | 85° |
| 2026-05-07 14:18 | 38.75989 | 1.51516 | 23917 ft | 435 kts | 85° |
| 2026-05-07 14:18 | 38.76389 | 1.55371 | 23909 ft | 439 kts | 85° |
| 2026-05-07 14:19 | 38.76791 | 1.59281 | 23925 ft | 445 kts | 85° |
| 2026-05-07 14:19 | 38.77195 | 1.63217 | 23922 ft | 446 kts | 85° |
| 2026-05-07 14:19 | 38.77603 | 1.67151 | 23713 ft | 443 kts | 85° |
| 2026-05-07 14:19 | 38.78008 | 1.71051 | 23479 ft | 441 kts | 85° |
| 2026-05-07 14:20 | 38.78408 | 1.74884 | 23213 ft | 439 kts | 85° |
| 2026-05-07 14:20 | 38.78807 | 1.78746 | 22942 ft | 436 kts | 85° |
| 2026-05-07 14:20 | 38.79199 | 1.82591 | 22673 ft | 434 kts | 85° |
| 2026-05-07 14:20 | 38.79589 | 1.86418 | 22406 ft | 431 kts | 84° |
| 2026-05-07 14:21 | 38.80248 | 1.90168 | 22135 ft | 432 kts | 74° |
| 2026-05-07 14:21 | 38.81391 | 1.93726 | 21860 ft | 432 kts | 64° |
| 2026-05-07 14:21 | 38.82974 | 1.96990 | 21612 ft | 431 kts | 54° |
| 2026-05-07 14:21 | 38.84789 | 1.99968 | 21358 ft | 429 kts | 53° |
| 2026-05-07 14:22 | 38.85031 | 2.00363 | 21321 ft | 429 kts | 53° |
| 2026-05-07 14:23 | 38.85348 | 2.00881 | 21283 ft | 428 kts | 53° |
| 2026-05-07 14:24 | 38.87143 | 2.03833 | 20882 ft | 422 kts | 53° |
| 2026-05-07 14:24 | 38.88933 | 2.06787 | 20345 ft | 418 kts | 54° |
| 2026-05-07 14:24 | 38.90706 | 2.09728 | 19821 ft | 414 kts | 54° |
| 2026-05-07 14:24 | 38.92461 | 2.12642 | 19299 ft | 410 kts | 53° |
| 2026-05-07 14:25 | 38.94199 | 2.15531 | 18764 ft | 407 kts | 53° |
| 2026-05-07 14:25 | 38.95924 | 2.18400 | 18233 ft | 404 kts | 54° |
| 2026-05-07 14:25 | 38.97635 | 2.21246 | 17629 ft | 401 kts | 54° |
| 2026-05-07 14:25 | 38.99333 | 2.24073 | 17090 ft | 397 kts | 54° |
| 2026-05-07 14:26 | 39.00989 | 2.26827 | 16532 ft | 393 kts | 53° |
| 2026-05-07 14:26 | 39.02655 | 2.29597 | 15972 ft | 390 kts | 54° |
| 2026-05-07 14:26 | 39.04304 | 2.32347 | 15425 ft | 387 kts | 53° |
| 2026-05-07 14:26 | 39.05940 | 2.35078 | 15031 ft | 380 kts | 54° |
| 2026-05-07 14:27 | 39.07522 | 2.37713 | 14902 ft | 365 kts | 54° |
| 2026-05-07 14:27 | 39.09049 | 2.40248 | 14782 ft | 352 kts | 54° |
| 2026-05-07 14:27 | 39.10519 | 2.42694 | 14659 ft | 339 kts | 54° |
| 2026-05-07 14:27 | 39.11921 | 2.45031 | 14531 ft | 319 kts | 54° |
| 2026-05-07 14:28 | 39.13232 | 2.47223 | 14348 ft | 300 kts | 56° |
| 2026-05-07 14:28 | 39.14474 | 2.49309 | 14007 ft | 295 kts | 56° |
| 2026-05-07 14:28 | 39.15712 | 2.51399 | 13688 ft | 294 kts | 56° |
| 2026-05-07 14:28 | 39.16949 | 2.53484 | 13261 ft | 290 kts | 56° |
| 2026-05-07 14:29 | 39.18168 | 2.55534 | 12670 ft | 286 kts | 54° |
| 2026-05-07 14:29 | 39.19373 | 2.57559 | 12084 ft | 283 kts | 55° |
| 2026-05-07 14:29 | 39.20567 | 2.59561 | 11501 ft | 280 kts | 56° |
| 2026-05-07 14:29 | 39.21748 | 2.61543 | 10928 ft | 277 kts | 54° |
| 2026-05-07 14:30 | 39.22915 | 2.63502 | 10364 ft | 274 kts | 55° |
| 2026-05-07 14:30 | 39.24065 | 2.65437 | 9815 ft | 270 kts | 53° |
| 2026-05-07 14:30 | 39.25183 | 2.67321 | 9197 ft | 267 kts | 54° |
| 2026-05-07 14:30 | 39.26301 | 2.69207 | 8584 ft | 263 kts | 56° |
| 2026-05-07 14:31 | 39.27404 | 2.71068 | 7992 ft | 259 kts | 53° |
| 2026-05-07 14:31 | 39.28489 | 2.72906 | 7357 ft | 256 kts | 54° |
| 2026-05-07 14:31 | 39.29561 | 2.74717 | 6827 ft | 251 kts | 56° |
| 2026-05-07 14:31 | 39.30611 | 2.76485 | 6468 ft | 246 kts | 55° |
| 2026-05-07 14:32 | 39.31848 | 2.78002 | 6139 ft | 248 kts | 33° |
| 2026-05-07 14:32 | 39.33458 | 2.78807 | 5860 ft | 252 kts | 12° |
| 2026-05-07 14:32 | 39.35204 | 2.78742 | 5636 ft | 254 kts | 349° |
| 2026-05-07 14:32 | 39.36914 | 2.78155 | 5378 ft | 254 kts | 348° |
| 2026-05-07 14:33 | 39.38617 | 2.77556 | 5132 ft | 254 kts | 348° |
| 2026-05-07 14:33 | 39.40291 | 2.76964 | 4879 ft | 252 kts | 346° |
| 2026-05-07 14:33 | 39.41824 | 2.75881 | 4552 ft | 256 kts | 315° |
| 2026-05-07 14:33 | 39.42736 | 2.73911 | 4277 ft | 258 kts | 290° |
| 2026-05-07 14:34 | 39.43073 | 2.71634 | 4022 ft | 258 kts | 271° |
| 2026-05-07 14:34 | 39.42922 | 2.69328 | 3759 ft | 259 kts | 262° |
| 2026-05-07 14:34 | 39.42702 | 2.67013 | 3497 ft | 259 kts | 263° |
| 2026-05-07 14:34 | 39.42492 | 2.64715 | 3232 ft | 256 kts | 263° |
| 2026-05-07 14:35 | 39.42287 | 2.62439 | 2965 ft | 254 kts | 263° |
| 2026-05-07 14:35 | 39.42087 | 2.60199 | 2729 ft | 251 kts | 263° |
| 2026-05-07 14:35 | 39.41891 | 2.58022 | 2630 ft | 237 kts | 263° |
| 2026-05-07 14:35 | 39.41705 | 2.55962 | 2576 ft | 226 kts | 264° |
| 2026-05-07 14:36 | 39.41524 | 2.53947 | 2526 ft | 225 kts | 264° |
| 2026-05-07 14:36 | 39.41354 | 2.51943 | 2480 ft | 224 kts | 268° |
| 2026-05-07 14:36 | 39.41703 | 2.50083 | 2412 ft | 207 kts | 311° |
| 2026-05-07 14:36 | 39.42824 | 2.49122 | 2373 ft | 191 kts | 354° |
| 2026-05-07 14:37 | 39.44077 | 2.49331 | 2340 ft | 180 kts | 33° |
| 2026-05-07 14:37 | 39.45560 | 2.51802 | 2266 ft | 175 kts | 59° |
| 2026-05-07 14:37 | 39.46189 | 2.53125 | 2229 ft | 175 kts | 60° |
| 2026-05-07 14:38 | 39.46831 | 2.54474 | 2185 ft | 176 kts | 59° |
| 2026-05-07 14:38 | 39.47473 | 2.55822 | 2149 ft | 176 kts | 60° |
| 2026-05-07 14:38 | 39.48115 | 2.57171 | 2067 ft | 175 kts | 60° |
| 2026-05-07 14:38 | 39.48754 | 2.58513 | 1965 ft | 174 kts | 60° |
| 2026-05-07 14:39 | 39.49387 | 2.59846 | 1881 ft | 173 kts | 59° |
| 2026-05-07 14:39 | 39.50022 | 2.61182 | 1750 ft | 174 kts | 60° |
| 2026-05-07 14:39 | 39.50657 | 2.62518 | 1554 ft | 174 kts | 60° |
| 2026-05-07 14:39 | 39.51272 | 2.63813 | 1370 ft | 163 kts | 59° |
| 2026-05-07 14:40 | 39.51849 | 2.65028 | 1134 ft | 153 kts | 58° |
| 2026-05-07 14:40 | 39.52382 | 2.66151 | 930 ft | 143 kts | 59° |
| 2026-05-07 14:40 | 39.52880 | 2.67201 | 760 ft | 132 kts | 61° |
| 2026-05-07 14:40 | 39.53351 | 2.68196 | 594 ft | 130 kts | 62° |
| 2026-05-07 14:41 | 39.53827 | 2.69184 | 435 ft | 127 kts | 62° |
| 2026-05-07 14:41 | 39.54286 | 2.70153 | 206 ft | 128 kts | 61° |
| 2026-05-07 14:41 | 39.54754 | 2.71147 | 74 ft | 128 kts | 60° |
| 2026-05-07 14:41 | 39.55196 | 2.72087 | 40 ft | 110 kts | 59° |
| 2026-05-07 14:42 | 39.55551 | 2.72842 | 37 ft | 84 kts | 58° |
| 2026-05-07 14:42 | 39.55715 | 2.73250 | 38 ft | 29 kts | 93° |
| 2026-05-07 14:42 | 39.55720 | 2.73453 | 38 ft | 18 kts | 86° |
| 2026-05-07 14:42 | 39.55661 | 2.73511 | 38 ft | 13 kts | 213° |
| 2026-05-07 14:43 | 39.55614 | 2.73418 | 38 ft | 12 kts | 240° |
| 2026-05-07 14:43 | 39.55574 | 2.73329 | 37 ft | 11 kts | 239° |
| 2026-05-07 14:43 | 39.55536 | 2.73246 | 38 ft | 10 kts | 239° |
| 2026-05-07 14:43 | 39.55501 | 2.73168 | 38 ft | 10 kts | 239° |
| 2026-05-07 14:44 | 39.55448 | 2.73057 | 38 ft | 20 kts | 237° |
| 2026-05-07 14:44 | 39.55357 | 2.72989 | 38 ft | 15 kts | 160° |
| 2026-05-07 14:44 | 39.55264 | 2.73036 | 38 ft | 13 kts | 184° |
| 2026-05-07 14:44 | 39.55206 | 2.73028 | 38 ft | 5 kts | 198° |
| 2026-05-07 14:45 | 39.55176 | 2.73017 | 38 ft | 4 kts | 194° |
| 2026-05-07 14:45 | 39.55160 | 2.73012 | 38 ft | 1 kts | 194° |
| 2026-05-07 14:45 | 39.55157 | 2.73011 | 38 ft | 0 kts | 194° |
| 2026-05-07 14:45 | 39.55156 | 2.73011 | 38 ft | 0 kts | 194° |